Time;durP1;ratioP1;P1;durP2;ratioP2;P2;SDS_P1;SDS_P2;PMS_P1;PMS_P2;Temp;Humidity;BMP_temperature;BMP_pressure;BME280_temperature;BME280_humidity;BME280_pressure;Samples;Min_cycle;Max_cycle;Signal;HPM_P1;HPM_P2
2021/05/29 00:02:13;;;;;;;14.83;10.47;;;;;;;10.58;70.49;100273.66;126737;1098;102789;-80
2021/05/29 00:05:07;;;;;;;13.13;10.60;;;;;;;10.58;70.24;100273.66;126472;1100;102959;-80
2021/05/29 00:07:54;;;;;;;13.30;10.43;;;;;;;10.59;70.64;100274.52;126576;1098;100537;-80
2021/05/29 00:10:46;;;;;;;12.97;9.77;;;;;;;10.59;70.62;100270.18;126531;1098;103093;-80
2021/05/29 00:13:34;;;;;;;14.90;11.50;;;;;;;10.59;70.34;100282.34;126463;1101;102984;-80
2021/05/29 00:16:23;;;;;;;11.57;9.97;;;;;;;10.60;70.86;100281.47;126646;1098;103048;-81
2021/05/29 00:19:12;;;;;;;13.00;9.97;;;;;;;10.58;70.79;100278.88;126624;1098;103022;-80
2021/05/29 00:21:59;;;;;;;;;;;;;;;10.58;70.75;100275.41;126612;1098;102936;-80
2021/05/29 00:24:47;;;;;;;12.83;9.90;;;;;;;10.57;71.11;100274.56;126586;1098;103088;-80
2021/05/29 00:27:35;;;;;;;12.00;10.03;;;;;;;10.56;70.95;100280.69;126479;1098;103021;-80
2021/05/29 00:30:25;;;;;;;14.53;11.50;;;;;;;10.58;71.22;100278.02;126519;1093;101201;-80
2021/05/29 00:33:13;;;;;;;11.70;9.87;;;;;;;10.58;71.16;100278.02;126561;1098;102961;-79
2021/05/29 00:36:01;;;;;;;12.90;10.43;;;;;;;10.61;71.29;100275.34;126497;1099;103358;-80
2021/05/29 00:38:49;;;;;;;14.87;11.50;;;;;;;10.61;71.39;100270.13;126665;1099;101891;-79
2021/05/29 00:41:37;;;;;;;13.40;11.23;;;;;;;10.64;71.20;100267.41;126404;1098;103125;-79
2021/05/29 00:44:25;;;;;;;14.20;10.63;;;;;;;10.65;71.30;100266.52;126434;1098;102902;-79
2021/05/29 00:47:16;;;;;;;12.63;10.23;;;;;;;10.65;71.49;100271.73;126599;1098;101219;-79
2021/05/29 00:50:08;;;;;;;12.97;10.20;;;;;;;10.65;71.46;100274.34;126522;1101;102987;-80
2021/05/29 00:52:56;;;;;;;12.60;9.90;;;;;;;10.65;71.30;100276.95;126443;1098;103103;-81
2021/05/29 00:55:45;;;;;;;13.30;9.73;;;;;;;10.67;71.53;100272.53;126575;1099;103201;-79
2021/05/29 00:58:34;;;;;;;12.27;9.87;;;;;;;10.69;71.59;100269.88;126599;1098;102980;-79
2021/05/29 01:01:22;;;;;;;14.55;11.25;;;;;;;10.71;71.55;100268.91;126445;1093;103091;-80
2021/05/29 01:04:10;;;;;;;11.37;9.87;;;;;;;10.76;71.59;100269.61;126628;1098;102931;-80
2021/05/29 01:06:57;;;;;;;11.93;9.20;;;;;;;10.77;71.61;100263.52;126694;1093;103409;-80
2021/05/29 01:09:45;;;;;;;11.17;9.43;;;;;;;10.80;71.73;100271.23;126531;1101;103023;-80
2021/05/29 01:12:35;;;;;;;11.07;9.50;;;;;;;10.84;71.71;100275.45;126606;1098;102972;-80
2021/05/29 01:15:23;;;;;;;11.13;9.87;;;;;;;10.86;71.62;100268.42;126556;1101;103004;-80
2021/05/29 01:18:15;;;;;;;12.77;9.37;;;;;;;10.87;71.55;100266.66;126557;1100;102953;-80
2021/05/29 01:21:05;;;;;;;11.80;9.43;;;;;;;10.86;71.77;100265.81;126646;1099;102948;-80
2021/05/29 01:23:54;;;;;;;13.60;9.63;;;;;;;10.90;71.68;100274.38;126552;1098;101975;-80
2021/05/29 01:26:42;;;;;;;10.57;9.47;;;;;;;10.91;71.85;100265.65;126525;1098;103121;-80
2021/05/29 01:29:30;;;;;;;13.10;10.80;;;;;;;10.93;71.59;100268.20;126627;1098;102934;-80
2021/05/29 01:32:22;;;;;;;11.17;9.67;;;;;;;10.95;71.94;100267.28;126679;1098;102988;-80
2021/05/29 01:35:11;;;;;;;14.10;11.40;;;;;;;10.97;71.88;100264.61;126373;1101;102972;-80
2021/05/29 01:38:00;;;;;;;10.07;9.07;;;;;;;10.97;71.78;100259.40;126629;1098;102980;-80
2021/05/29 01:40:50;;;;;;;11.70;10.33;;;;;;;10.99;71.76;100273.24;126604;1098;103007;-80
2021/05/29 01:43:41;;;;;;;11.40;9.50;;;;;;;10.96;72.19;100273.35;126495;1098;102988;-80
2021/05/29 01:46:28;;;;;;;10.60;9.33;;;;;;;10.95;71.91;100277.72;126584;1098;103044;-80
2021/05/29 01:49:16;;;;;;;;;;;;;;;10.93;71.91;100269.05;126512;1098;103058;-79
2021/05/29 01:52:04;;;;;;;10.03;8.50;;;;;;;10.92;71.96;100282.16;126470;1101;103064;-82
2021/05/29 01:54:51;;;;;;;10.67;9.00;;;;;;;10.90;71.97;100275.23;126470;1101;102860;-81
2021/05/29 01:57:40;;;;;;;11.47;9.37;;;;;;;10.92;72.25;100277.79;126458;1101;103001;-79
2021/05/29 02:00:29;;;;;;;15.57;11.43;;;;;;;10.96;72.10;100278.56;126543;1101;102255;-79
2021/05/29 02:03:18;;;;;;;11.73;9.47;;;;;;;10.97;72.42;100282.88;126473;1094;103075;-80
2021/05/29 02:06:05;;;;;;;13.13;10.87;;;;;;;10.96;72.21;100275.95;126452;1101;103068;-81
2021/05/29 02:08:54;;;;;;;13.63;10.10;;;;;;;10.96;72.32;100273.35;126468;1101;103503;-81
2021/05/29 02:11:42;;;;;;;10.93;9.03;;;;;;;10.96;72.19;100271.59;126510;1093;103081;-81
2021/05/29 02:14:30;;;;;;;11.45;9.40;;;;;;;10.96;72.54;100273.35;126578;1101;103063;-81
2021/05/29 02:17:20;;;;;;;12.03;9.67;;;;;;;10.96;72.57;100273.35;126483;1101;103080;-80
2021/05/29 02:20:09;;;;;;;11.60;10.40;;;;;;;10.94;72.49;100270.77;126455;1101;103110;-81
2021/05/29 02:22:57;;;;;;;11.73;10.10;;;;;;;10.94;72.35;100272.52;126526;1101;103030;-79
2021/05/29 02:25:46;;;;;;;11.00;9.67;;;;;;;10.93;72.65;100273.42;126536;1101;102972;-80
2021/05/29 02:28:35;;;;;;;10.43;8.90;;;;;;;10.89;72.47;100268.31;126420;1101;102933;-79
2021/05/29 02:31:24;;;;;;;11.03;9.90;;;;;;;10.90;73.14;100280.45;126476;1101;103002;-79
2021/05/29 02:34:12;;;;;;;10.03;9.00;;;;;;;10.91;72.63;100273.48;126464;1093;102883;-82
2021/05/29 02:37:00;;;;;;;11.30;9.60;;;;;;;10.93;72.68;100282.10;126522;1101;103051;-79
2021/05/29 02:39:49;;;;;;;12.10;9.77;;;;;;;10.92;72.47;100280.41;126440;1101;103055;-79
2021/05/29 02:42:37;;;;;;;12.10;10.80;;;;;;;10.92;72.78;100284.77;126558;1101;101225;-80
2021/05/29 02:45:26;;;;;;;11.10;9.57;;;;;;;10.89;72.61;100286.58;126441;1101;103037;-80
2021/05/29 02:48:14;;;;;;;12.07;10.73;;;;;;;10.87;72.60;100291.00;126496;1101;102931;-80
2021/05/29 02:51:03;;;;;;;11.37;10.27;;;;;;;10.86;72.57;100286.69;126505;1101;102969;-80
2021/05/29 02:53:50;;;;;;;12.10;10.57;;;;;;;10.86;72.62;100289.29;126496;1093;102880;-80
2021/05/29 02:56:38;;;;;;;;;;;;;;;10.85;72.61;100295.41;126474;1101;102958;-79
2021/05/29 02:59:26;;;;;;;14.33;12.03;;;;;;;10.86;72.65;100297.13;126429;1101;103026;-79
2021/05/29 03:02:14;;;;;;;11.40;10.20;;;;;;;10.85;72.66;100298.02;126487;1097;102899;-79
2021/05/29 03:05:04;;;;;;;11.80;10.60;;;;;;;10.87;72.81;100304.05;126555;1094;103017;-80
2021/05/29 03:07:51;;;;;;;12.80;9.60;;;;;;;10.87;72.62;100305.80;126532;1101;103079;-80
2021/05/29 03:10:41;;;;;;;10.83;9.73;;;;;;;10.89;72.54;100309.20;126521;1101;102963;-80
2021/05/29 03:13:29;;;;;;;11.93;9.97;;;;;;;10.92;72.54;100314.33;126496;1101;103024;-80
2021/05/29 03:16:17;;;;;;;10.73;9.63;;;;;;;10.95;72.64;100313.36;126420;1101;103183;-80
2021/05/29 03:19:05;;;;;;;11.20;9.67;;;;;;;10.93;72.52;100309.95;126497;1101;103078;-79
2021/05/29 03:21:53;;;;;;;12.03;9.23;;;;;;;10.93;72.25;100304.73;126536;1101;102909;-80
2021/05/29 03:24:41;;;;;;;10.00;9.00;;;;;;;10.95;72.37;100310.75;126528;1101;102953;-80
2021/05/29 03:27:29;;;;;;;10.83;8.87;;;;;;;10.97;72.35;100302.00;126409;1093;103004;-80
2021/05/29 03:30:24;;;;;;;11.03;9.40;;;;;;;10.98;72.33;100303.70;126363;1101;103205;-79
2021/05/29 03:33:13;;;;;;;11.33;9.60;;;;;;;10.99;72.03;100299.34;126447;1101;102976;-80
2021/05/29 03:36:01;;;;;;;9.43;8.10;;;;;;;11.00;72.02;100301.05;126491;1101;102964;-80
2021/05/29 03:38:49;;;;;;;10.10;9.10;;;;;;;11.00;72.25;100303.66;126401;1101;103036;-81
2021/05/29 03:41:36;;;;;;;;;;;;;;;11.00;71.93;100296.67;126491;1101;103029;-79
2021/05/29 03:44:26;;;;;;;9.97;8.67;;;;;;;11.01;72.04;100292.31;126495;1101;103239;-79
2021/05/29 03:47:15;;;;;;;11.03;9.17;;;;;;;11.03;71.73;100293.11;126480;1101;101751;-79
2021/05/29 03:50:04;;;;;;;13.23;10.20;;;;;;;11.08;71.93;100293.80;126504;1100;102950;-81
2021/05/29 03:52:53;;;;;;;10.50;9.23;;;;;;;11.11;71.66;100293.69;126592;1098;103110;-81
2021/05/29 03:55:41;;;;;;;12.27;10.00;;;;;;;11.18;71.90;100289.98;126580;1098;102963;-81
2021/05/29 03:58:30;;;;;;;11.97;10.70;;;;;;;11.23;71.57;100297.66;126582;1098;103452;-81
2021/05/29 04:01:18;;;;;;;11.00;9.90;;;;;;;11.27;71.50;100288.81;126558;1098;102945;-81
2021/05/29 04:04:11;;;;;;;10.87;9.33;;;;;;;11.31;71.36;100291.28;126564;1093;102958;-81
2021/05/29 04:07:00;;;;;;;11.90;9.87;;;;;;;11.39;71.07;100288.39;126661;1098;103025;-80
2021/05/29 04:09:48;;;;;;;13.07;10.17;;;;;;;11.41;71.04;100282.20;126534;1098;101504;-81
2021/05/29 04:12:36;;;;;;;11.37;9.70;;;;;;;11.45;70.86;100289.02;126635;1093;102935;-81
2021/05/29 04:15:26;;;;;;;10.90;9.67;;;;;;;11.46;70.90;100288.11;126678;1098;102933;-81
2021/05/29 04:18:14;;;;;;;12.43;9.87;;;;;;;11.52;70.81;100283.60;126585;1098;103025;-81
2021/05/29 04:21:01;;;;;;;10.60;9.17;;;;;;;11.56;70.43;100291.27;126603;1098;103822;-81
2021/05/29 04:23:49;;;;;;;9.33;8.33;;;;;;;11.64;70.36;100277.92;126610;1098;102975;-81
2021/05/29 04:26:37;;;;;;;10.20;8.73;;;;;;;11.76;70.26;100291.41;126529;1098;103046;-81
2021/05/29 04:29:25;;;;;;;;;;;;;;;11.89;70.08;100286.63;126594;1098;103043;-81
2021/05/29 04:32:13;;;;;;;13.27;9.80;;;;;;;11.95;69.85;100286.39;126593;1100;103415;-81
2021/05/29 04:35:01;;;;;;;10.63;9.20;;;;;;;12.06;69.66;100293.84;126405;1101;101911;-81
2021/05/29 04:37:50;;;;;;;10.47;9.37;;;;;;;12.14;69.36;100289.16;126468;1101;102989;-79
2021/05/29 04:40:38;;;;;;;11.57;8.53;;;;;;;12.25;69.07;100286.16;126446;1098;103360;-79
2021/05/29 04:43:27;;;;;;;10.70;8.80;;;;;;;12.34;68.98;100289.25;126501;1098;102961;-79
2021/05/29 04:46:15;;;;;;;9.70;8.37;;;;;;;12.50;68.54;100296.50;126450;1101;103026;-79
2021/05/29 04:49:03;;;;;;;9.60;8.33;;;;;;;12.62;68.09;100301.27;126531;1098;102976;-79
2021/05/29 04:51:50;;;;;;;8.57;7.63;;;;;;;12.66;68.01;100302.84;126424;1101;103003;-79
2021/05/29 04:54:39;;;;;;;8.67;7.80;;;;;;;12.75;67.85;100302.48;126511;1098;103061;-81
2021/05/29 04:57:27;;;;;;;10.43;8.40;;;;;;;12.83;67.45;100296.93;126563;1098;103444;-79
2021/05/29 05:00:18;;;;;;;10.00;8.97;;;;;;;12.85;67.28;100292.48;126494;1101;103024;-80
2021/05/29 05:03:06;;;;;;;12.27;8.60;;;;;;;12.85;66.88;100295.10;126411;1098;102954;-79
2021/05/29 05:05:53;;;;;;;;;;;;;;;12.81;66.62;100293.53;126430;1098;102955;-79
2021/05/29 05:08:41;;;;;;;8.03;7.23;;;;;;;12.76;66.20;100290.25;126443;1098;102942;-79
2021/05/29 05:11:29;;;;;;;8.57;7.17;;;;;;;12.77;66.19;100295.42;126458;1099;102960;-79
2021/05/29 05:14:18;;;;;;;7.67;6.47;;;;;;;12.89;66.10;100304.52;126494;1098;102863;-79
2021/05/29 05:17:06;;;;;;;10.30;7.63;;;;;;;13.00;65.40;100297.95;126505;1098;102919;-81
2021/05/29 05:19:54;;;;;;;10.03;7.20;;;;;;;12.97;64.73;100312.94;126456;1093;103065;-79
2021/05/29 05:22:41;;;;;;;6.13;5.53;;;;;;;12.94;64.71;100313.06;126519;1098;102832;-79
2021/05/29 05:25:32;;;;;;;9.87;8.20;;;;;;;13.09;64.43;100304.55;126427;1098;103050;-79
2021/05/29 05:28:26;;;;;;;9.77;8.20;;;;;;;13.54;64.30;100308.81;126554;1098;102937;-81
2021/05/29 05:31:15;;;;;;;6.93;5.97;;;;;;;14.01;63.26;100308.48;126527;1098;103020;-81
2021/05/29 05:34:08;;;;;;;5.70;4.80;;;;;;;14.58;63.01;100309.36;126430;1100;102982;-80
2021/05/29 05:36:58;;;;;;;7.37;6.10;;;;;;;15.22;61.59;100300.94;126476;1098;102959;-81
2021/05/29 05:39:46;;;;;;;5.40;4.37;;;;;;;16.06;60.94;100305.33;126562;1098;102940;-81
2021/05/29 05:42:33;;;;;;;;;;;;;;;17.63;58.92;100298.15;126479;1101;102950;-81
2021/05/29 05:45:21;;;;;;;4.70;3.50;;;;;;;19.99;56.22;100292.42;126592;1098;101891;-81
2021/05/29 05:48:09;;;;;;;6.93;4.50;;;;;;;22.19;52.72;100282.92;126686;1098;102994;-80
2021/05/29 05:50:59;;;;;;;4.83;3.77;;;;;;;24.11;49.18;100280.07;126477;1101;104090;-79
2021/05/29 05:53:48;;;;;;;6.30;3.10;;;;;;;25.58;45.28;100277.38;126446;1093;103034;-79
2021/05/29 05:56:35;;;;;;;3.80;2.70;;;;;;;25.36;42.68;100278.55;126468;1093;102947;-79
2021/05/29 05:59:23;;;;;;;4.27;2.80;;;;;;;24.84;42.77;100277.99;126549;1098;102925;-79
2021/05/29 06:02:11;;;;;;;6.13;4.10;;;;;;;24.90;42.30;100276.58;126423;1101;102979;-80
2021/05/29 06:05:00;;;;;;;3.50;3.20;;;;;;;24.86;41.27;100281.36;126554;1098;102938;-79
2021/05/29 06:07:47;;;;;;;7.40;3.47;;;;;;;24.93;40.27;100281.63;126717;1098;102780;-79
2021/05/29 06:10:36;;;;;;;4.10;3.33;;;;;;;25.85;40.18;100280.14;126409;1093;102960;-79
2021/05/29 06:19:45;;;;;;;;;;;;;;;26.20;36.86;100283.89;126562;1098;102892;-79
2021/05/29 06:22:35;;;;;;;4.93;3.10;;;;;;;27.34;36.21;100279.73;126529;1099;102930;-79
2021/05/29 06:25:23;;;;;;;6.93;3.70;;;;;;;28.57;34.00;100277.53;126329;1093;103031;-79
2021/05/29 06:28:11;;;;;;;5.07;2.80;;;;;;;29.10;33.34;100276.27;126457;1098;103039;-79
2021/05/29 06:30:58;;;;;;;3.70;3.00;;;;;;;28.16;32.79;100287.24;126533;1093;102947;-79
2021/05/29 06:33:46;;;;;;;4.13;2.63;;;;;;;27.47;33.99;100282.84;126626;1098;102962;-79
2021/05/29 06:36:34;;;;;;;4.13;2.40;;;;;;;26.65;33.47;100291.13;126690;1098;102956;-80
2021/05/29 06:39:22;;;;;;;2.67;2.27;;;;;;;26.08;34.38;100293.96;126426;1098;103091;-80
2021/05/29 06:42:10;;;;;;;4.47;2.97;;;;;;;25.28;34.39;100287.26;126662;1098;103027;-80
2021/05/29 06:44:58;;;;;;;4.37;2.40;;;;;;;25.01;34.56;100284.48;126411;1101;102962;-79
2021/05/29 06:47:47;;;;;;;3.07;2.33;;;;;;;25.35;34.54;100281.37;126451;1098;102953;-79
2021/05/29 06:50:36;;;;;;;3.77;1.97;;;;;;;25.70;34.44;100281.59;126651;1093;102959;-79
2021/05/29 06:54:01;;;;;;;2.17;2.07;;;;;;;26.41;33.80;100286.37;126530;1093;103011;-79
2021/05/29 06:59:45;;;;;;;3.17;2.30;;;;;;;27.99;32.47;100283.65;126542;1098;102926;-79
2021/05/29 07:02:34;;;;;;;3.13;2.13;;;;;;;28.94;31.22;100283.48;126474;1093;102824;-79
2021/05/29 07:05:23;;;;;;;2.03;1.63;;;;;;;30.45;29.89;100288.04;126383;1098;102828;-78
2021/05/29 07:08:11;;;;;;;1.73;1.60;;;;;;;30.82;28.34;100284.63;126420;1093;102928;-79
2021/05/29 07:10:59;;;;;;;1.60;1.50;;;;;;;29.97;28.79;100285.35;126472;1098;102985;-79
2021/05/29 07:13:47;;;;;;;2.37;1.40;;;;;;;29.22;28.79;100283.97;126451;1098;103225;-79
2021/05/29 07:16:38;;;;;;;4.53;1.67;;;;;;;29.10;29.16;100281.64;126400;1101;103062;-79
2021/05/29 07:19:26;;;;;;;1.73;1.47;;;;;;;28.54;29.47;100285.05;126445;1098;103781;-79
2021/05/29 07:22:14;;;;;;;2.13;1.47;;;;;;;27.68;28.74;100287.86;126640;1098;102983;-79
2021/05/29 07:25:07;;;;;;;2.47;1.77;;;;;;;26.74;29.29;100284.85;126423;1100;103114;-79
2021/05/29 07:27:55;;;;;;;3.00;1.60;;;;;;;26.08;29.78;100301.14;126491;1100;102924;-79
2021/05/29 07:30:44;;;;;;;2.60;1.70;;;;;;;25.62;30.89;100289.44;126458;1098;103146;-79
2021/05/29 07:33:32;;;;;;;3.63;1.67;;;;;;;25.99;30.89;100289.48;126456;1093;102946;-79
2021/05/29 07:36:20;;;;;;;1.53;1.40;;;;;;;27.56;30.19;100286.41;126479;1098;104541;-79
2021/05/29 07:39:08;;;;;;;1.77;1.60;;;;;;;28.61;28.20;100280.72;126502;1098;102950;-79
2021/05/29 07:41:57;;;;;;;2.00;1.27;;;;;;;28.23;27.71;100288.30;126553;1098;102970;-79
2021/05/29 07:44:45;;;;;;;9.57;3.90;;;;;;;28.12;27.65;100298.45;126408;1098;103189;-79
2021/05/29 07:47:33;;;;;;;2.93;1.50;;;;;;;27.85;28.26;100295.00;126333;1099;102931;-79
2021/05/29 07:50:21;;;;;;;1.80;1.53;;;;;;;27.25;28.03;100286.00;126438;1093;102859;-79
2021/05/29 07:53:08;;;;;;;2.33;1.30;;;;;;;26.42;28.68;100304.94;126470;1100;102966;-80
2021/05/29 07:55:58;;;;;;;1.40;1.30;;;;;;;25.44;29.01;100302.69;126448;1098;103476;-80
2021/05/29 07:58:48;;;;;;;1.97;1.80;;;;;;;24.42;29.98;100298.72;126380;1099;103028;-79
2021/05/29 08:01:36;;;;;;;1.70;1.60;;;;;;;23.38;31.03;100302.38;126474;1093;102786;-79
2021/05/29 08:04:24;;;;;;;2.30;2.10;;;;;;;22.38;32.06;100306.20;126421;1098;103044;-79
2021/05/29 08:07:12;;;;;;;2.60;2.00;;;;;;;21.51;33.08;100313.02;126415;1101;101838;-79
2021/05/29 08:10:00;;;;;;;2.67;2.33;;;;;;;20.70;34.40;100315.58;126409;1098;103017;-80
2021/05/29 08:12:48;;;;;;;1.90;1.70;;;;;;;19.92;34.22;100311.36;126457;1098;102972;-81
2021/05/29 08:15:35;;;;;;;3.80;3.03;;;;;;;19.53;35.50;100314.09;126550;1098;103051;-80
2021/05/29 08:18:24;;;;;;;4.57;1.97;;;;;;;20.01;35.86;100315.18;126491;1098;103435;-81
2021/05/29 08:21:12;;;;;;;2.37;1.57;;;;;;;20.63;36.20;100303.71;126415;1100;102955;-79
2021/05/29 08:24:00;;;;;;;2.30;1.60;;;;;;;21.31;35.07;100308.38;126436;1098;102728;-80
2021/05/29 08:26:47;;;;;;;1.80;1.50;;;;;;;21.74;34.38;100305.11;126441;1093;103168;-79
2021/05/29 08:29:35;;;;;;;1.90;1.60;;;;;;;22.01;33.97;100309.09;126434;1098;102966;-80
2021/05/29 08:32:23;;;;;;;2.10;1.40;;;;;;;21.77;34.02;100311.02;126405;1101;102926;-81
2021/05/29 08:35:12;;;;;;;2.00;1.50;;;;;;;21.18;34.22;100305.77;126599;1098;101083;-81
2021/05/29 08:38:00;;;;;;;2.27;1.50;;;;;;;20.58;34.71;100314.66;126596;1100;102990;-81
2021/05/29 08:40:48;;;;;;;1.70;1.50;;;;;;;19.92;34.92;100316.66;126530;1098;102898;-80
2021/05/29 08:43:37;;;;;;;2.93;2.40;;;;;;;19.44;35.71;100312.93;126497;1098;103048;-80
2021/05/29 08:46:27;;;;;;;2.30;1.93;;;;;;;19.09;36.42;100317.94;126533;1099;103002;-81
2021/05/29 08:49:15;;;;;;;2.63;1.80;;;;;;;18.96;37.09;100324.97;126600;1093;102990;-81
2021/05/29 08:52:03;;;;;;;1.80;1.43;;;;;;;18.92;37.56;100318.20;126616;1098;103000;-80
2021/05/29 08:54:51;;;;;;;2.03;1.83;;;;;;;19.00;37.74;100326.45;126580;1098;103062;-80
2021/05/29 08:57:49;;;;;;;2.00;1.80;;;;;;;19.14;37.61;100317.63;126544;1093;103078;-80
2021/05/29 09:00:37;;;;;;;3.70;1.80;;;;;;;19.64;38.07;100314.24;126595;1098;102953;-80
2021/05/29 09:03:42;;;;;;;4.00;2.90;;;;;;;20.96;37.62;100309.19;126565;1099;103030;-80
2021/05/29 09:06:32;;;;;;;2.23;1.70;;;;;;;22.72;36.20;100298.16;126659;1099;103090;-81
2021/05/29 09:09:20;;;;;;;2.10;1.70;;;;;;;23.88;34.30;100305.22;126413;1093;103083;-81
2021/05/29 09:12:10;;;;;;;1.50;1.30;;;;;;;25.10;33.76;100291.63;126516;1100;102972;-82
2021/05/29 09:14:58;;;;;;;3.37;2.10;;;;;;;26.38;32.66;100297.34;126534;1098;102968;-81
2021/05/29 09:17:46;;;;;;;2.07;1.57;;;;;;;26.47;30.52;100302.64;126681;1098;103479;-81
2021/05/29 09:20:34;;;;;;;2.67;1.20;;;;;;;25.98;29.80;100292.30;126535;1099;103094;-81
2021/05/29 09:23:22;;;;;;;1.70;1.37;;;;;;;25.62;30.17;100281.43;126473;1098;102889;-81
2021/05/29 09:26:10;;;;;;;1.90;1.17;;;;;;;25.99;29.76;100280.63;126506;1099;102925;-82
2021/05/29 09:29:12;;;;;;;2.33;2.00;;;;;;;26.73;29.79;100281.33;126572;1098;102754;-81
2021/05/29 09:32:08;;;;;;;1.63;1.30;;;;;;;26.87;29.42;100281.80;126555;1093;102970;-79
2021/05/29 09:35:00;;;;;;;3.20;1.27;;;;;;;26.28;28.84;100292.03;126464;1098;102172;-81
2021/05/29 09:37:48;;;;;;;3.53;1.50;;;;;;;25.24;28.71;100291.20;126453;1100;102784;-81
2021/05/29 09:40:39;;;;;;;1.30;1.20;;;;;;;24.32;29.35;100292.50;126468;1093;103542;-81
2021/05/29 09:43:27;;;;;;;2.30;1.40;;;;;;;23.56;29.91;100293.80;126488;1099;102931;-81
2021/05/29 09:46:15;;;;;;;2.23;1.93;;;;;;;22.93;30.65;100296.41;126425;1099;102926;-81
2021/05/29 09:49:03;;;;;;;2.17;1.47;;;;;;;22.26;30.44;100304.52;126529;1099;102411;-81
2021/05/29 09:51:51;;;;;;;2.37;1.50;;;;;;;21.86;31.82;100309.45;126491;1099;102974;-81
2021/05/29 09:54:49;;;;;;;5.87;1.90;;;;;;;21.54;32.56;100309.27;126558;1099;102934;-81
2021/05/29 09:57:57;;;;;;;;;;;;;;;21.79;33.72;100303.78;126487;1101;102962;-81
2021/05/29 10:00:47;;;;;;;3.37;1.93;;;;;;;21.82;33.33;100303.54;126413;1094;102934;-79
2021/05/29 10:03:49;;;;;;;1.73;1.63;;;;;;;21.45;33.32;100310.84;126483;1099;103149;-80
2021/05/29 10:06:38;;;;;;;2.50;1.60;;;;;;;21.24;33.80;100301.83;126613;1093;103203;-80
2021/05/29 10:09:27;;;;;;;2.10;1.63;;;;;;;21.08;33.58;100296.83;126555;1093;101879;-80
2021/05/29 10:12:19;;;;;;;1.60;1.50;;;;;;;20.95;33.99;100302.20;126528;1099;103117;-80
2021/05/29 10:15:11;;;;;;;1.60;1.23;;;;;;;21.04;33.57;100290.92;126645;1098;102234;-80
2021/05/29 10:18:02;;;;;;;1.30;1.20;;;;;;;20.92;33.58;100291.83;126602;1100;100793;-80
2021/05/29 10:20:52;;;;;;;1.60;1.30;;;;;;;20.76;33.68;100288.61;126494;1101;102944;-80
2021/05/29 10:23:45;;;;;;;1.83;1.40;;;;;;;20.79;34.01;100293.68;126599;1098;103043;-80
2021/05/29 10:26:34;;;;;;;1.30;1.20;;;;;;;21.03;34.03;100288.38;126410;1099;103074;-79
2021/05/29 10:29:26;;;;;;;2.00;1.53;;;;;;;21.22;34.17;100293.15;126523;1101;102943;-80
2021/05/29 10:32:19;;;;;;;2.37;1.50;;;;;;;21.82;34.60;100286.77;126484;1098;103029;-80
2021/05/29 10:35:09;;;;;;;1.70;1.60;;;;;;;22.50;33.39;100283.11;126673;1098;103081;-80
2021/05/29 10:37:57;;;;;;;5.93;1.93;;;;;;;23.17;33.47;100282.91;126485;1098;102982;-79
2021/05/29 10:40:48;;;;;;;1.30;1.20;;;;;;;23.64;31.90;100280.69;126618;1093;103167;-79
2021/05/29 10:43:36;;;;;;;3.23;1.40;;;;;;;23.92;30.83;100287.15;126462;1098;103004;-80
2021/05/29 10:46:26;;;;;;;1.10;1.00;;;;;;;24.04;30.74;100284.23;126414;1098;103156;-79
2021/05/29 10:49:14;;;;;;;0.93;0.93;;;;;;;24.10;30.88;100275.72;126597;1098;102771;-79
2021/05/29 10:52:02;;;;;;;1.30;1.20;;;;;;;23.99;30.26;100281.14;126528;1099;102931;-80
2021/05/29 10:55:16;;;;;;;1.10;1.10;;;;;;;24.17;31.20;100272.50;126525;1100;101847;-79
2021/05/29 10:58:08;;;;;;;6.87;1.20;;;;;;;24.51;31.19;100271.22;126537;1098;102567;-79
2021/05/29 11:00:55;;;;;;;1.73;1.33;;;;;;;24.81;30.27;100272.10;126488;1098;103078;-79
2021/05/29 11:03:43;;;;;;;1.67;1.57;;;;;;;24.79;30.30;100276.73;126497;1099;103248;-79
2021/05/29 11:06:32;;;;;;;1.33;1.23;;;;;;;24.46;30.28;100273.47;126506;1098;103017;-79
2021/05/29 11:09:26;;;;;;;4.40;2.03;;;;;;;24.09;30.89;100276.70;126507;1100;103027;-79
2021/05/29 11:12:15;;;;;;;2.67;1.53;;;;;;;23.34;31.06;100282.33;126462;1098;102980;-81
2021/05/29 11:15:03;;;;;;;2.27;1.50;;;;;;;22.69;30.65;100277.14;126463;1098;102967;-79
2021/05/29 11:18:08;;;;;;;2.20;1.53;;;;;;;22.10;31.50;100291.64;126403;1100;102952;-80
2021/05/29 11:21:07;;;;;;;1.77;1.43;;;;;;;21.68;32.28;100290.48;126570;1098;103001;-79
2021/05/29 11:23:55;;;;;;;2.97;1.53;;;;;;;21.49;32.84;100290.22;126480;1098;103148;-80
2021/05/29 11:26:44;;;;;;;2.23;1.50;;;;;;;21.38;33.14;100291.06;126537;1093;101275;-81
2021/05/29 11:29:55;;;;;;;1.30;1.20;;;;;;;21.40;33.02;100294.44;126548;1099;101555;-80
2021/05/29 11:33:37;;;;;;;2.27;1.27;;;;;;;21.61;32.67;100291.94;126612;1098;103083;-80
2021/05/29 11:35:58;;;;;;;1.87;1.30;;;;;;;21.89;32.53;100291.46;126431;1098;102992;-81
2021/05/29 11:38:50;;;;;;;2.07;1.70;;;;;;;22.03;32.55;100288.57;126489;1098;103118;-80
2021/05/29 11:41:40;;;;;;;1.63;1.23;;;;;;;22.03;31.94;100285.07;126600;1099;103550;-81
2021/05/29 11:44:29;;;;;;;1.40;1.20;;;;;;;21.96;32.43;100279.41;126544;1098;103096;-80
2021/05/29 11:47:18;;;;;;;1.47;1.37;;;;;;;21.80;32.49;100288.70;126412;1098;102949;-80
2021/05/29 11:50:15;;;;;;;1.45;1.35;;;;;;;21.57;33.41;100282.53;126513;1098;103068;-81
2021/05/29 11:53:02;;;;;;;2.37;1.67;;;;;;;21.29;33.57;100286.44;126591;1098;102951;-80
2021/05/29 11:55:53;;;;;;;2.90;1.90;;;;;;;20.99;33.45;100281.59;126707;1098;103137;-80
2021/05/29 11:58:45;;;;;;;1.90;1.70;;;;;;;20.61;34.08;100281.78;126489;1101;102977;-80
2021/05/29 12:01:35;;;;;;;2.47;2.20;;;;;;;20.18;34.77;100291.01;126397;1101;102897;-81
2021/05/29 12:04:29;;;;;;;2.73;1.73;;;;;;;19.88;35.46;100288.72;126496;1100;102938;-81
2021/05/29 12:07:17;;;;;;;3.87;1.80;;;;;;;19.84;35.41;100287.24;126561;1098;103153;-80
2021/05/29 12:10:06;;;;;;;2.43;1.60;;;;;;;19.86;34.77;100289.78;126435;1101;103091;-80
2021/05/29 12:12:56;;;;;;;1.90;1.70;;;;;;;19.94;35.33;100282.17;126561;1098;101482;-80
2021/05/29 12:15:44;;;;;;;2.47;2.00;;;;;;;20.14;34.77;100288.70;126490;1098;103054;-80
2021/05/29 12:18:39;;;;;;;1.70;1.60;;;;;;;20.33;34.99;100291.72;126472;1101;103059;-80
2021/05/29 12:21:51;;;;;;;2.07;1.87;;;;;;;20.29;34.90;100289.38;126568;1098;103360;-80
2021/05/29 12:24:45;;;;;;;1.77;1.67;;;;;;;20.01;34.61;100290.51;126560;1099;102958;-81
2021/05/29 12:27:44;;;;;;;2.90;2.10;;;;;;;19.81;35.00;100286.62;126552;1098;103141;-81
2021/05/29 12:30:31;;;;;;;2.47;1.83;;;;;;;19.75;35.81;100279.96;126610;1098;103072;-81
2021/05/29 12:33:22;;;;;;;3.47;1.90;;;;;;;19.67;35.57;100287.56;126682;1098;102955;-81
2021/05/29 12:36:14;;;;;;;2.37;2.17;;;;;;;19.63;35.88;100280.80;126505;1099;102926;-81
2021/05/29 12:39:03;;;;;;;3.53;2.17;;;;;;;19.86;35.93;100280.04;126518;1098;103088;-80
2021/05/29 12:41:51;;;;;;;2.30;2.10;;;;;;;20.16;36.30;100279.68;126549;1100;102924;-80
2021/05/29 12:44:48;;;;;;;2.30;1.67;;;;;;;20.48;36.27;100273.91;126585;1098;102927;-80
2021/05/29 12:47:37;;;;;;;2.47;1.80;;;;;;;20.85;36.00;100280.00;126515;1100;103606;-81
2021/05/29 12:50:28;;;;;;;3.07;2.30;;;;;;;21.09;35.67;100277.30;126633;1093;102926;-81
2021/05/29 12:53:17;;;;;;;4.13;2.27;;;;;;;21.18;35.60;100270.45;126598;1098;103004;-81
2021/05/29 12:56:13;;;;;;;2.20;1.63;;;;;;;21.43;35.17;100270.31;126626;1098;102978;-80
2021/05/29 12:59:07;;;;;;;1.97;1.70;;;;;;;21.68;35.21;100259.48;126677;1098;103187;-81